sensor_id;sensor_type;location;lat;lon;timestamp;P1;durP1;ratioP1;P2;durP2;ratioP2
30420;SDS011;17218;54.070;10.012;2024-02-23T00:02:04;0.40;;;0.30;;
30420;SDS011;17218;54.070;10.012;2024-02-23T00:04:31;0.50;;;0.38;;
30420;SDS011;17218;54.070;10.012;2024-02-23T00:06:57;0.43;;;0.30;;
30420;SDS011;17218;54.070;10.012;2024-02-23T00:09:25;0.32;;;0.30;;
30420;SDS011;17218;54.070;10.012;2024-02-23T00:11:52;0.25;;;0.25;;
30420;SDS011;17218;54.070;10.012;2024-02-23T00:14:19;0.25;;;0.20;;
30420;SDS011;17218;54.070;10.012;2024-02-23T00:16:46;0.45;;;0.20;;
30420;SDS011;17218;54.070;10.012;2024-02-23T00:19:13;0.20;;;0.20;;
30420;SDS011;17218;54.070;10.012;2024-02-23T00:21:40;2.83;;;0.45;;
30420;SDS011;17218;54.070;10.012;2024-02-23T00:24:07;1.10;;;0.40;;
30420;SDS011;17218;54.070;10.012;2024-02-23T00:26:35;1.45;;;0.50;;
30420;SDS011;17218;54.070;10.012;2024-02-23T00:29:02;1.35;;;0.40;;
30420;SDS011;17218;54.070;10.012;2024-02-23T00:31:29;0.70;;;0.30;;
30420;SDS011;17218;54.070;10.012;2024-02-23T00:33:55;0.20;;;0.20;;
30420;SDS011;17218;54.070;10.012;2024-02-23T00:36:22;0.55;;;0.30;;
30420;SDS011;17218;54.070;10.012;2024-02-23T00:38:48;0.10;;;0.10;;
30420;SDS011;17218;54.070;10.012;2024-02-23T00:41:14;0.20;;;0.20;;
30420;SDS011;17218;54.070;10.012;2024-02-23T00:43:42;0.50;;;0.20;;
30420;SDS011;17218;54.070;10.012;2024-02-23T00:46:09;0.35;;;0.22;;
30420;SDS011;17218;54.070;10.012;2024-02-23T00:48:35;0.93;;;0.30;;
30420;SDS011;17218;54.070;10.012;2024-02-23T00:51:02;0.20;;;0.20;;
30420;SDS011;17218;54.070;10.012;2024-02-23T00:53:30;2.95;;;0.30;;
30420;SDS011;17218;54.070;10.012;2024-02-23T00:55:56;0.47;;;0.20;;
30420;SDS011;17218;54.070;10.012;2024-02-23T00:58:23;0.57;;;0.40;;
30420;SDS011;17218;54.070;10.012;2024-02-23T01:00:51;0.70;;;0.20;;
30420;SDS011;17218;54.070;10.012;2024-02-23T01:03:17;0.25;;;0.20;;
30420;SDS011;17218;54.070;10.012;2024-02-23T01:05:44;0.20;;;0.20;;
30420;SDS011;17218;54.070;10.012;2024-02-23T01:08:10;0.50;;;0.25;;
30420;SDS011;17218;54.070;10.012;2024-02-23T01:10:37;0.33;;;0.27;;
30420;SDS011;17218;54.070;10.012;2024-02-23T01:13:03;0.25;;;0.13;;
30420;SDS011;17218;54.070;10.012;2024-02-23T01:15:31;0.83;;;0.20;;
30420;SDS011;17218;54.070;10.012;2024-02-23T01:17:58;0.20;;;0.20;;
30420;SDS011;17218;54.070;10.012;2024-02-23T01:20:25;0.10;;;0.10;;
30420;SDS011;17218;54.070;10.012;2024-02-23T01:22:51;0.10;;;0.10;;
30420;SDS011;17218;54.070;10.012;2024-02-23T01:25:18;0.10;;;0.10;;
30420;SDS011;17218;54.070;10.012;2024-02-23T01:27:44;0.10;;;0.10;;
30420;SDS011;17218;54.070;10.012;2024-02-23T01:30:11;0.10;;;0.10;;
30420;SDS011;17218;54.070;10.012;2024-02-23T01:32:38;0.10;;;0.10;;
30420;SDS011;17218;54.070;10.012;2024-02-23T01:35:06;0.20;;;0.20;;
30420;SDS011;17218;54.070;10.012;2024-02-23T01:37:33;0.20;;;0.20;;
30420;SDS011;17218;54.070;10.012;2024-02-23T01:40:00;0.10;;;0.10;;
30420;SDS011;17218;54.070;10.012;2024-02-23T01:42:27;1.20;;;0.20;;
30420;SDS011;17218;54.070;10.012;2024-02-23T01:44:53;0.20;;;0.20;;
30420;SDS011;17218;54.070;10.012;2024-02-23T01:47:21;0.15;;;0.05;;
30420;SDS011;17218;54.070;10.012;2024-02-23T01:49:48;0.10;;;0.10;;
30420;SDS011;17218;54.070;10.012;2024-02-23T01:52:17;0.10;;;0.10;;
30420;SDS011;17218;54.070;10.012;2024-02-23T01:54:44;0.10;;;0.10;;
30420;SDS011;17218;54.070;10.012;2024-02-23T01:57:11;0.90;;;0.20;;
30420;SDS011;17218;54.070;10.012;2024-02-23T01:59:38;0.10;;;0.10;;
30420;SDS011;17218;54.070;10.012;2024-02-23T02:02:05;0.13;;;0.13;;
30420;SDS011;17218;54.070;10.012;2024-02-23T02:04:31;0.10;;;0.10;;
30420;SDS011;17218;54.070;10.012;2024-02-23T02:06:58;0.40;;;0.17;;
30420;SDS011;17218;54.070;10.012;2024-02-23T02:09:26;0.73;;;0.10;;
30420;SDS011;17218;54.070;10.012;2024-02-23T02:11:53;0.10;;;0.10;;
30420;SDS011;17218;54.070;10.012;2024-02-23T02:14:19;0.10;;;0.10;;
30420;SDS011;17218;54.070;10.012;2024-02-23T02:16:46;0.10;;;0.10;;
30420;SDS011;17218;54.070;10.012;2024-02-23T02:19:12;0.10;;;0.10;;
30420;SDS011;17218;54.070;10.012;2024-02-23T02:21:40;0.10;;;0.10;;
30420;SDS011;17218;54.070;10.012;2024-02-23T02:24:07;0.10;;;0.10;;
30420;SDS011;17218;54.070;10.012;2024-02-23T02:26:35;0.10;;;0.10;;
30420;SDS011;17218;54.070;10.012;2024-02-23T02:29:03;0.70;;;0.20;;
30420;SDS011;17218;54.070;10.012;2024-02-23T02:31:29;0.57;;;0.10;;
30420;SDS011;17218;54.070;10.012;2024-02-23T02:34:02;0.10;;;0.10;;
30420;SDS011;17218;54.070;10.012;2024-02-23T02:36:28;0.93;;;0.30;;
30420;SDS011;17218;54.070;10.012;2024-02-23T02:38:55;0.20;;;0.20;;
30420;SDS011;17218;54.070;10.012;2024-02-23T02:41:22;0.10;;;0.10;;
30420;SDS011;17218;54.070;10.012;2024-02-23T02:43:52;0.13;;;0.10;;
30420;SDS011;17218;54.070;10.012;2024-02-23T02:46:18;0.00;;;0.00;;
30420;SDS011;17218;54.070;10.012;2024-02-23T02:48:45;0.10;;;0.10;;
30420;SDS011;17218;54.070;10.012;2024-02-23T02:51:11;0.43;;;0.37;;
30420;SDS011;17218;54.070;10.012;2024-02-23T02:53:38;0.47;;;0.10;;
30420;SDS011;17218;54.070;10.012;2024-02-23T02:56:05;0.57;;;0.20;;
30420;SDS011;17218;54.070;10.012;2024-02-23T02:58:32;0.10;;;0.10;;
30420;SDS011;17218;54.070;10.012;2024-02-23T03:01:00;0.10;;;0.10;;
30420;SDS011;17218;54.070;10.012;2024-02-23T03:03:27;0.63;;;0.30;;
30420;SDS011;17218;54.070;10.012;2024-02-23T03:05:53;0.20;;;0.20;;
30420;SDS011;17218;54.070;10.012;2024-02-23T03:08:20;0.23;;;0.20;;
30420;SDS011;17218;54.070;10.012;2024-02-23T03:10:46;1.37;;;0.20;;
30420;SDS011;17218;54.070;10.012;2024-02-23T03:13:13;1.40;;;0.60;;
30420;SDS011;17218;54.070;10.012;2024-02-23T03:15:40;0.70;;;0.20;;
30420;SDS011;17218;54.070;10.012;2024-02-23T03:18:08;0.40;;;0.20;;
30420;SDS011;17218;54.070;10.012;2024-02-23T03:20:35;0.90;;;0.20;;
30420;SDS011;17218;54.070;10.012;2024-02-23T03:23:01;0.10;;;0.10;;
30420;SDS011;17218;54.070;10.012;2024-02-23T03:25:28;0.30;;;0.23;;
30420;SDS011;17218;54.070;10.012;2024-02-23T03:27:55;0.93;;;0.47;;
30420;SDS011;17218;54.070;10.012;2024-02-23T03:30:21;1.80;;;0.20;;
30420;SDS011;17218;54.070;10.012;2024-02-23T03:32:48;5.23;;;0.30;;
30420;SDS011;17218;54.070;10.012;2024-02-23T03:35:16;2.20;;;0.40;;
30420;SDS011;17218;54.070;10.012;2024-02-23T03:37:42;0.77;;;0.30;;
30420;SDS011;17218;54.070;10.012;2024-02-23T03:40:09;1.33;;;0.50;;
30420;SDS011;17218;54.070;10.012;2024-02-23T03:42:36;1.00;;;0.30;;
30420;SDS011;17218;54.070;10.012;2024-02-23T03:45:03;4.03;;;0.47;;
30420;SDS011;17218;54.070;10.012;2024-02-23T03:47:31;0.83;;;0.27;;
30420;SDS011;17218;54.070;10.012;2024-02-23T03:49:57;0.30;;;0.20;;
30420;SDS011;17218;54.070;10.012;2024-02-23T03:52:25;0.83;;;0.40;;
30420;SDS011;17218;54.070;10.012;2024-02-23T03:54:52;2.00;;;0.37;;
30420;SDS011;17218;54.070;10.012;2024-02-23T03:57:19;0.10;;;0.10;;
30420;SDS011;17218;54.070;10.012;2024-02-23T03:59:51;1.50;;;0.40;;
30420;SDS011;17218;54.070;10.012;2024-02-23T04:02:18;0.57;;;0.30;;
30420;SDS011;17218;54.070;10.012;2024-02-23T04:04:45;0.10;;;0.10;;
30420;SDS011;17218;54.070;10.012;2024-02-23T04:07:11;0.23;;;0.23;;
30420;SDS011;17218;54.070;10.012;2024-02-23T04:09:39;1.07;;;0.47;;
30420;SDS011;17218;54.070;10.012;2024-02-23T04:12:05;0.73;;;0.30;;
30420;SDS011;17218;54.070;10.012;2024-02-23T04:18:03;0.40;;;0.40;;
30420;SDS011;17218;54.070;10.012;2024-02-23T04:20:30;2.23;;;0.40;;
30420;SDS011;17218;54.070;10.012;2024-02-23T04:22:57;0.60;;;0.50;;
30420;SDS011;17218;54.070;10.012;2024-02-23T04:25:25;2.60;;;0.40;;
30420;SDS011;17218;54.070;10.012;2024-02-23T04:27:52;0.40;;;0.40;;
30420;SDS011;17218;54.070;10.012;2024-02-23T04:30:19;2.30;;;0.73;;
30420;SDS011;17218;54.070;10.012;2024-02-23T04:32:45;0.87;;;0.30;;
30420;SDS011;17218;54.070;10.012;2024-02-23T04:35:12;0.33;;;0.30;;
30420;SDS011;17218;54.070;10.012;2024-02-23T04:37:39;0.37;;;0.37;;
30420;SDS011;17218;54.070;10.012;2024-02-23T04:40:06;2.00;;;0.50;;
30420;SDS011;17218;54.070;10.012;2024-02-23T04:42:35;1.40;;;0.53;;
30420;SDS011;17218;54.070;10.012;2024-02-23T04:45:01;1.60;;;0.50;;
30420;SDS011;17218;54.070;10.012;2024-02-23T04:47:28;3.13;;;0.50;;
30420;SDS011;17218;54.070;10.012;2024-02-23T04:49:54;5.67;;;0.80;;
30420;SDS011;17218;54.070;10.012;2024-02-23T04:52:21;3.13;;;0.60;;
30420;SDS011;17218;54.070;10.012;2024-02-23T04:54:47;1.17;;;0.50;;
30420;SDS011;17218;54.070;10.012;2024-02-23T04:57:13;0.60;;;0.57;;
30420;SDS011;17218;54.070;10.012;2024-02-23T04:59:41;1.03;;;0.67;;
30420;SDS011;17218;54.070;10.012;2024-02-23T05:02:08;1.80;;;0.50;;
30420;SDS011;17218;54.070;10.012;2024-02-23T05:04:34;2.10;;;0.80;;
30420;SDS011;17218;54.070;10.012;2024-02-23T05:07:01;0.93;;;0.60;;
30420;SDS011;17218;54.070;10.012;2024-02-23T05:09:27;1.47;;;0.60;;
30420;SDS011;17218;54.070;10.012;2024-02-23T05:11:54;5.53;;;0.70;;
30420;SDS011;17218;54.070;10.012;2024-02-23T05:14:20;0.97;;;0.50;;
30420;SDS011;17218;54.070;10.012;2024-02-23T05:16:48;2.70;;;0.70;;
30420;SDS011;17218;54.070;10.012;2024-02-23T05:19:14;2.77;;;0.80;;
30420;SDS011;17218;54.070;10.012;2024-02-23T05:21:42;1.87;;;0.60;;
30420;SDS011;17218;54.070;10.012;2024-02-23T05:24:08;2.63;;;0.70;;
30420;SDS011;17218;54.070;10.012;2024-02-23T05:26:37;2.20;;;0.50;;
30420;SDS011;17218;54.070;10.012;2024-02-23T05:29:03;2.23;;;0.70;;
30420;SDS011;17218;54.070;10.012;2024-02-23T05:31:43;2.53;;;0.63;;
30420;SDS011;17218;54.070;10.012;2024-02-23T05:34:12;1.23;;;0.77;;
30420;SDS011;17218;54.070;10.012;2024-02-23T05:36:39;2.83;;;0.80;;
30420;SDS011;17218;54.070;10.012;2024-02-23T05:39:06;3.37;;;0.60;;
30420;SDS011;17218;54.070;10.012;2024-02-23T05:41:32;2.00;;;0.57;;
30420;SDS011;17218;54.070;10.012;2024-02-23T05:43:59;3.10;;;0.60;;
30420;SDS011;17218;54.070;10.012;2024-02-23T05:46:26;5.53;;;1.10;;
30420;SDS011;17218;54.070;10.012;2024-02-23T05:48:52;2.20;;;0.80;;
30420;SDS011;17218;54.070;10.012;2024-02-23T05:51:20;3.73;;;1.10;;
30420;SDS011;17218;54.070;10.012;2024-02-23T05:53:46;5.30;;;1.17;;
30420;SDS011;17218;54.070;10.012;2024-02-23T05:56:13;3.03;;;0.80;;
30420;SDS011;17218;54.070;10.012;2024-02-23T05:58:39;1.17;;;0.80;;
30420;SDS011;17218;54.070;10.012;2024-02-23T06:01:06;0.93;;;0.83;;
30420;SDS011;17218;54.070;10.012;2024-02-23T06:03:33;1.23;;;0.60;;
30420;SDS011;17218;54.070;10.012;2024-02-23T06:05:59;3.27;;;0.87;;
30420;SDS011;17218;54.070;10.012;2024-02-23T06:08:27;0.67;;;0.67;;
30420;SDS011;17218;54.070;10.012;2024-02-23T06:10:54;1.23;;;0.90;;
30420;SDS011;17218;54.070;10.012;2024-02-23T06:13:20;2.73;;;1.13;;
30420;SDS011;17218;54.070;10.012;2024-02-23T06:15:46;1.33;;;0.90;;
30420;SDS011;17218;54.070;10.012;2024-02-23T06:18:13;2.83;;;0.90;;
30420;SDS011;17218;54.070;10.012;2024-02-23T06:20:40;1.33;;;0.90;;
30420;SDS011;17218;54.070;10.012;2024-02-23T06:23:06;1.63;;;1.20;;
30420;SDS011;17218;54.070;10.012;2024-02-23T06:25:34;2.20;;;0.77;;
30420;SDS011;17218;54.070;10.012;2024-02-23T06:28:00;2.23;;;0.67;;
30420;SDS011;17218;54.070;10.012;2024-02-23T06:30:27;1.33;;;0.70;;
30420;SDS011;17218;54.070;10.012;2024-02-23T06:32:53;0.80;;;0.80;;
30420;SDS011;17218;54.070;10.012;2024-02-23T06:35:20;1.73;;;1.00;;
30420;SDS011;17218;54.070;10.012;2024-02-23T06:37:47;5.43;;;1.67;;
30420;SDS011;17218;54.070;10.012;2024-02-23T06:40:13;2.53;;;0.83;;
30420;SDS011;17218;54.070;10.012;2024-02-23T06:42:41;2.57;;;0.90;;
30420;SDS011;17218;54.070;10.012;2024-02-23T06:45:08;1.27;;;0.90;;
30420;SDS011;17218;54.070;10.012;2024-02-23T06:47:35;1.30;;;0.77;;
30420;SDS011;17218;54.070;10.012;2024-02-23T06:50:01;2.53;;;0.97;;
30420;SDS011;17218;54.070;10.012;2024-02-23T06:52:28;4.90;;;0.70;;
30420;SDS011;17218;54.070;10.012;2024-02-23T06:54:55;1.33;;;0.80;;
30420;SDS011;17218;54.070;10.012;2024-02-23T06:57:21;1.80;;;0.60;;
30420;SDS011;17218;54.070;10.012;2024-02-23T06:59:52;2.63;;;0.90;;
30420;SDS011;17218;54.070;10.012;2024-02-23T07:02:18;1.17;;;0.73;;
30420;SDS011;17218;54.070;10.012;2024-02-23T07:04:45;0.70;;;0.50;;
30420;SDS011;17218;54.070;10.012;2024-02-23T07:07:11;1.03;;;0.60;;
30420;SDS011;17218;54.070;10.012;2024-02-23T07:09:38;2.30;;;0.63;;
30420;SDS011;17218;54.070;10.012;2024-02-23T07:12:05;2.77;;;0.57;;
30420;SDS011;17218;54.070;10.012;2024-02-23T07:14:32;1.13;;;0.80;;
30420;SDS011;17218;54.070;10.012;2024-02-23T07:17:00;4.20;;;0.80;;
30420;SDS011;17218;54.070;10.012;2024-02-23T07:19:27;3.07;;;0.70;;
30420;SDS011;17218;54.070;10.012;2024-02-23T07:21:53;3.77;;;1.03;;
30420;SDS011;17218;54.070;10.012;2024-02-23T07:24:19;2.83;;;0.67;;
30420;SDS011;17218;54.070;10.012;2024-02-23T07:26:46;1.27;;;0.70;;
30420;SDS011;17218;54.070;10.012;2024-02-23T07:29:12;3.13;;;0.97;;
30420;SDS011;17218;54.070;10.012;2024-02-23T07:31:39;0.93;;;0.63;;
30420;SDS011;17218;54.070;10.012;2024-02-23T07:34:07;0.60;;;0.60;;
30420;SDS011;17218;54.070;10.012;2024-02-23T07:36:33;2.07;;;0.80;;
30420;SDS011;17218;54.070;10.012;2024-02-23T07:39:00;1.80;;;0.60;;
30420;SDS011;17218;54.070;10.012;2024-02-23T07:41:28;1.63;;;0.77;;
30420;SDS011;17218;54.070;10.012;2024-02-23T07:43:54;0.97;;;0.80;;
30420;SDS011;17218;54.070;10.012;2024-02-23T07:46:21;1.93;;;0.77;;
30420;SDS011;17218;54.070;10.012;2024-02-23T07:48:48;2.70;;;0.90;;
30420;SDS011;17218;54.070;10.012;2024-02-23T07:51:16;5.50;;;0.97;;
30420;SDS011;17218;54.070;10.012;2024-02-23T07:53:42;1.00;;;0.63;;
30420;SDS011;17218;54.070;10.012;2024-02-23T07:56:08;2.00;;;1.10;;
30420;SDS011;17218;54.070;10.012;2024-02-23T07:58:35;2.27;;;1.07;;
30420;SDS011;17218;54.070;10.012;2024-02-23T08:01:01;1.73;;;0.80;;
30420;SDS011;17218;54.070;10.012;2024-02-23T08:03:29;1.47;;;0.93;;
30420;SDS011;17218;54.070;10.012;2024-02-23T08:05:55;4.93;;;0.93;;
30420;SDS011;17218;54.070;10.012;2024-02-23T08:08:23;1.33;;;0.97;;
30420;SDS011;17218;54.070;10.012;2024-02-23T08:10:52;2.77;;;1.37;;
30420;SDS011;17218;54.070;10.012;2024-02-23T08:13:18;1.63;;;1.43;;
30420;SDS011;17218;54.070;10.012;2024-02-23T08:15:46;4.50;;;1.43;;
30420;SDS011;17218;54.070;10.012;2024-02-23T08:18:12;0.87;;;0.87;;
30420;SDS011;17218;54.070;10.012;2024-02-23T08:20:38;3.07;;;1.43;;
30420;SDS011;17218;54.070;10.012;2024-02-23T08:23:05;1.63;;;1.03;;
30420;SDS011;17218;54.070;10.012;2024-02-23T08:25:33;3.07;;;1.47;;
30420;SDS011;17218;54.070;10.012;2024-02-23T08:27:59;2.27;;;1.20;;
30420;SDS011;17218;54.070;10.012;2024-02-23T08:30:26;2.50;;;1.53;;
30420;SDS011;17218;54.070;10.012;2024-02-23T08:32:52;3.43;;;1.30;;
30420;SDS011;17218;54.070;10.012;2024-02-23T08:35:19;1.80;;;1.10;;
30420;SDS011;17218;54.070;10.012;2024-02-23T08:37:46;1.30;;;1.10;;
30420;SDS011;17218;54.070;10.012;2024-02-23T08:40:12;3.10;;;1.10;;
30420;SDS011;17218;54.070;10.012;2024-02-23T08:42:40;1.07;;;1.00;;
30420;SDS011;17218;54.070;10.012;2024-02-23T08:45:07;1.43;;;1.20;;
30420;SDS011;17218;54.070;10.012;2024-02-23T08:47:37;3.07;;;1.20;;
30420;SDS011;17218;54.070;10.012;2024-02-23T08:50:04;1.27;;;0.80;;
30420;SDS011;17218;54.070;10.012;2024-02-23T08:52:31;1.73;;;1.40;;
30420;SDS011;17218;54.070;10.012;2024-02-23T08:54:58;1.20;;;1.00;;
30420;SDS011;17218;54.070;10.012;2024-02-23T08:57:25;4.17;;;1.00;;
30420;SDS011;17218;54.070;10.012;2024-02-23T08:59:53;3.60;;;1.07;;
30420;SDS011;17218;54.070;10.012;2024-02-23T09:02:22;3.73;;;1.43;;
30420;SDS011;17218;54.070;10.012;2024-02-23T09:04:48;2.80;;;1.43;;
30420;SDS011;17218;54.070;10.012;2024-02-23T09:07:15;1.53;;;1.00;;
30420;SDS011;17218;54.070;10.012;2024-02-23T09:09:45;1.57;;;1.10;;
30420;SDS011;17218;54.070;10.012;2024-02-23T09:12:11;2.57;;;1.00;;
30420;SDS011;17218;54.070;10.012;2024-02-23T09:14:39;3.90;;;1.30;;
30420;SDS011;17218;54.070;10.012;2024-02-23T09:17:07;2.47;;;1.07;;
30420;SDS011;17218;54.070;10.012;2024-02-23T09:19:35;2.60;;;1.03;;
30420;SDS011;17218;54.070;10.012;2024-02-23T09:22:01;1.80;;;1.20;;
30420;SDS011;17218;54.070;10.012;2024-02-23T09:24:28;1.57;;;0.70;;
30420;SDS011;17218;54.070;10.012;2024-02-23T09:26:55;1.50;;;0.93;;
30420;SDS011;17218;54.070;10.012;2024-02-23T09:29:21;5.23;;;1.60;;
30420;SDS011;17218;54.070;10.012;2024-02-23T09:31:48;2.20;;;1.37;;
30420;SDS011;17218;54.070;10.012;2024-02-23T09:34:16;6.17;;;1.50;;
30420;SDS011;17218;54.070;10.012;2024-02-23T09:36:42;1.75;;;1.00;;
30420;SDS011;17218;54.070;10.012;2024-02-23T09:39:09;2.17;;;1.23;;
30420;SDS011;17218;54.070;10.012;2024-02-23T09:41:35;0.97;;;0.90;;
30420;SDS011;17218;54.070;10.012;2024-02-23T09:44:04;1.73;;;1.17;;
30420;SDS011;17218;54.070;10.012;2024-02-23T09:46:32;2.50;;;0.87;;
30420;SDS011;17218;54.070;10.012;2024-02-23T09:48:59;1.60;;;0.90;;
30420;SDS011;17218;54.070;10.012;2024-02-23T09:51:29;2.80;;;0.90;;
30420;SDS011;17218;54.070;10.012;2024-02-23T09:53:57;5.27;;;1.63;;
30420;SDS011;17218;54.070;10.012;2024-02-23T09:56:25;3.10;;;1.23;;
30420;SDS011;17218;54.070;10.012;2024-02-23T09:58:54;3.23;;;0.70;;
30420;SDS011;17218;54.070;10.012;2024-02-23T10:01:24;5.67;;;1.00;;
30420;SDS011;17218;54.070;10.012;2024-02-23T10:03:53;2.87;;;0.80;;
30420;SDS011;17218;54.070;10.012;2024-02-23T10:06:22;4.40;;;0.80;;
30420;SDS011;17218;54.070;10.012;2024-02-23T10:08:50;4.43;;;1.20;;
30420;SDS011;17218;54.070;10.012;2024-02-23T10:11:17;1.70;;;1.03;;
30420;SDS011;17218;54.070;10.012;2024-02-23T10:13:44;2.57;;;0.90;;
30420;SDS011;17218;54.070;10.012;2024-02-23T10:16:11;2.93;;;1.07;;
30420;SDS011;17218;54.070;10.012;2024-02-23T10:18:38;3.10;;;0.90;;
30420;SDS011;17218;54.070;10.012;2024-02-23T10:21:04;1.10;;;0.83;;
30420;SDS011;17218;54.070;10.012;2024-02-23T10:23:31;3.38;;;1.17;;
30420;SDS011;17218;54.070;10.012;2024-02-23T10:25:59;1.27;;;0.63;;
30420;SDS011;17218;54.070;10.012;2024-02-23T10:28:25;3.70;;;1.07;;
30420;SDS011;17218;54.070;10.012;2024-02-23T10:30:53;1.37;;;0.70;;
30420;SDS011;17218;54.070;10.012;2024-02-23T10:33:20;1.23;;;0.53;;
30420;SDS011;17218;54.070;10.012;2024-02-23T10:35:48;1.17;;;0.98;;
30420;SDS011;17218;54.070;10.012;2024-02-23T10:38:20;2.57;;;0.93;;
30420;SDS011;17218;54.070;10.012;2024-02-23T10:40:47;1.27;;;0.93;;
30420;SDS011;17218;54.070;10.012;2024-02-23T10:43:16;1.07;;;0.97;;
30420;SDS011;17218;54.070;10.012;2024-02-23T10:45:45;2.33;;;1.35;;
30420;SDS011;17218;54.070;10.012;2024-02-23T10:48:14;2.30;;;1.20;;
30420;SDS011;17218;54.070;10.012;2024-02-23T10:50:41;3.55;;;1.10;;
30420;SDS011;17218;54.070;10.012;2024-02-23T10:53:09;2.15;;;0.98;;
30420;SDS011;17218;54.070;10.012;2024-02-23T10:55:37;2.15;;;1.17;;
30420;SDS011;17218;54.070;10.012;2024-02-23T10:58:04;1.50;;;0.85;;
30420;SDS011;17218;54.070;10.012;2024-02-23T11:00:37;1.23;;;1.13;;
30420;SDS011;17218;54.070;10.012;2024-02-23T11:03:04;3.58;;;1.40;;
30420;SDS011;17218;54.070;10.012;2024-02-23T11:05:33;2.92;;;1.48;;
30420;SDS011;17218;54.070;10.012;2024-02-23T11:07:59;2.35;;;1.20;;
30420;SDS011;17218;54.070;10.012;2024-02-23T11:10:26;1.45;;;0.93;;
30420;SDS011;17218;54.070;10.012;2024-02-23T11:12:57;3.50;;;0.93;;
30420;SDS011;17218;54.070;10.012;2024-02-23T11:15:25;3.03;;;0.90;;
30420;SDS011;17218;54.070;10.012;2024-02-23T11:17:54;2.38;;;0.88;;
30420;SDS011;17218;54.070;10.012;2024-02-23T11:20:21;0.65;;;0.65;;
30420;SDS011;17218;54.070;10.012;2024-02-23T11:22:51;0.90;;;0.68;;
30420;SDS011;17218;54.070;10.012;2024-02-23T11:25:19;3.75;;;0.90;;
30420;SDS011;17218;54.070;10.012;2024-02-23T11:27:48;0.88;;;0.73;;
30420;SDS011;17218;54.070;10.012;2024-02-23T11:30:16;1.27;;;0.77;;
30420;SDS011;17218;54.070;10.012;2024-02-23T11:32:44;0.70;;;0.60;;
30420;SDS011;17218;54.070;10.012;2024-02-23T11:35:15;1.85;;;0.80;;
30420;SDS011;17218;54.070;10.012;2024-02-23T11:37:47;1.85;;;0.85;;
30420;SDS011;17218;54.070;10.012;2024-02-23T11:40:17;0.88;;;0.50;;
30420;SDS011;17218;54.070;10.012;2024-02-23T11:42:43;1.27;;;0.60;;
30420;SDS011;17218;54.070;10.012;2024-02-23T11:45:09;0.60;;;0.50;;
30420;SDS011;17218;54.070;10.012;2024-02-23T11:47:36;1.63;;;0.40;;
30420;SDS011;17218;54.070;10.012;2024-02-23T11:50:03;2.30;;;0.77;;
30420;SDS011;17218;54.070;10.012;2024-02-23T11:52:33;2.70;;;0.57;;
30420;SDS011;17218;54.070;10.012;2024-02-23T11:55:00;3.20;;;0.80;;
30420;SDS011;17218;54.070;10.012;2024-02-23T11:57:27;1.08;;;0.82;;
30420;SDS011;17218;54.070;10.012;2024-02-23T11:59:54;4.03;;;0.75;;
30420;SDS011;17218;54.070;10.012;2024-02-23T12:02:20;1.05;;;0.65;;
30420;SDS011;17218;54.070;10.012;2024-02-23T12:04:47;2.03;;;0.80;;
30420;SDS011;17218;54.070;10.012;2024-02-23T12:07:14;1.50;;;0.73;;
30420;SDS011;17218;54.070;10.012;2024-02-23T12:09:43;2.00;;;0.80;;
30420;SDS011;17218;54.070;10.012;2024-02-23T12:12:09;1.98;;;0.70;;
30420;SDS011;17218;54.070;10.012;2024-02-23T12:14:36;2.92;;;1.10;;
30420;SDS011;17218;54.070;10.012;2024-02-23T12:17:02;2.25;;;0.80;;
30420;SDS011;17218;54.070;10.012;2024-02-23T12:19:31;1.45;;;1.35;;
30420;SDS011;17218;54.070;10.012;2024-02-23T12:21:59;1.88;;;0.85;;
30420;SDS011;17218;54.070;10.012;2024-02-23T12:24:26;3.85;;;1.40;;
30420;SDS011;17218;54.070;10.012;2024-02-23T12:26:55;0.70;;;0.63;;
30420;SDS011;17218;54.070;10.012;2024-02-23T12:29:21;0.63;;;0.60;;
30420;SDS011;17218;54.070;10.012;2024-02-23T12:31:48;1.92;;;0.70;;
30420;SDS011;17218;54.070;10.012;2024-02-23T12:34:14;21.25;;;1.90;;
30420;SDS011;17218;54.070;10.012;2024-02-23T12:36:41;3.35;;;1.13;;
30420;SDS011;17218;54.070;10.012;2024-02-23T12:39:07;2.15;;;1.05;;
30420;SDS011;17218;54.070;10.012;2024-02-23T12:41:34;2.10;;;0.70;;
30420;SDS011;17218;54.070;10.012;2024-02-23T12:44:02;0.93;;;0.73;;
30420;SDS011;17218;54.070;10.012;2024-02-23T12:46:28;1.25;;;0.60;;
30420;SDS011;17218;54.070;10.012;2024-02-23T12:48:54;2.60;;;0.70;;
30420;SDS011;17218;54.070;10.012;2024-02-23T12:51:24;0.75;;;0.75;;
30420;SDS011;17218;54.070;10.012;2024-02-23T12:53:51;1.48;;;0.60;;
30420;SDS011;17218;54.070;10.012;2024-02-23T12:56:18;0.77;;;0.60;;
30420;SDS011;17218;54.070;10.012;2024-02-23T12:58:45;3.20;;;0.77;;
30420;SDS011;17218;54.070;10.012;2024-02-23T13:01:13;1.40;;;0.60;;
30420;SDS011;17218;54.070;10.012;2024-02-23T13:03:40;3.33;;;0.70;;
30420;SDS011;17218;54.070;10.012;2024-02-23T13:06:07;2.08;;;1.40;;
30420;SDS011;17218;54.070;10.012;2024-02-23T13:08:34;1.10;;;0.73;;
30420;SDS011;17218;54.070;10.012;2024-02-23T13:11:00;2.53;;;0.70;;
30420;SDS011;17218;54.070;10.012;2024-02-23T13:13:28;3.25;;;0.90;;
30420;SDS011;17218;54.070;10.012;2024-02-23T13:15:55;0.95;;;0.60;;
30420;SDS011;17218;54.070;10.012;2024-02-23T13:18:23;0.82;;;0.50;;
30420;SDS011;17218;54.070;10.012;2024-02-23T13:20:49;3.83;;;0.82;;
30420;SDS011;17218;54.070;10.012;2024-02-23T13:23:16;1.30;;;0.80;;
30420;SDS011;17218;54.070;10.012;2024-02-23T13:25:44;0.55;;;0.55;;
30420;SDS011;17218;54.070;10.012;2024-02-23T13:28:11;2.53;;;0.60;;
30420;SDS011;17218;54.070;10.012;2024-02-23T13:30:37;0.90;;;0.70;;
30420;SDS011;17218;54.070;10.012;2024-02-23T13:33:04;1.90;;;0.80;;
30420;SDS011;17218;54.070;10.012;2024-02-23T13:35:34;0.60;;;0.55;;
30420;SDS011;17218;54.070;10.012;2024-02-23T13:38:00;1.77;;;0.65;;
30420;SDS011;17218;54.070;10.012;2024-02-23T13:40:28;2.60;;;0.55;;
30420;SDS011;17218;54.070;10.012;2024-02-23T13:42:55;2.17;;;0.73;;
30420;SDS011;17218;54.070;10.012;2024-02-23T13:45:22;2.33;;;0.80;;
30420;SDS011;17218;54.070;10.012;2024-02-23T13:47:55;0.85;;;0.70;;
30420;SDS011;17218;54.070;10.012;2024-02-23T13:50:22;2.67;;;1.15;;
30420;SDS011;17218;54.070;10.012;2024-02-23T13:52:50;0.52;;;0.52;;
30420;SDS011;17218;54.070;10.012;2024-02-23T13:55:17;1.85;;;0.65;;
30420;SDS011;17218;54.070;10.012;2024-02-23T13:57:45;0.52;;;0.50;;
30420;SDS011;17218;54.070;10.012;2024-02-23T14:00:12;0.60;;;0.60;;
30420;SDS011;17218;54.070;10.012;2024-02-23T14:02:40;0.50;;;0.50;;
30420;SDS011;17218;54.070;10.012;2024-02-23T14:05:07;3.70;;;0.82;;
30420;SDS011;17218;54.070;10.012;2024-02-23T14:07:33;4.23;;;0.90;;
30420;SDS011;17218;54.070;10.012;2024-02-23T14:10:02;0.75;;;0.50;;
30420;SDS011;17218;54.070;10.012;2024-02-23T14:12:29;1.65;;;0.80;;
30420;SDS011;17218;54.070;10.012;2024-02-23T14:14:55;1.23;;;0.70;;
30420;SDS011;17218;54.070;10.012;2024-02-23T14:17:22;1.17;;;0.65;;
30420;SDS011;17218;54.070;10.012;2024-02-23T14:19:48;0.95;;;0.50;;
30420;SDS011;17218;54.070;10.012;2024-02-23T14:22:15;0.60;;;0.60;;
30420;SDS011;17218;54.070;10.012;2024-02-23T14:24:42;0.68;;;0.55;;
30420;SDS011;17218;54.070;10.012;2024-02-23T14:27:10;2.63;;;0.60;;
30420;SDS011;17218;54.070;10.012;2024-02-23T14:29:37;1.02;;;0.60;;
30420;SDS011;17218;54.070;10.012;2024-02-23T14:32:03;1.10;;;0.80;;
30420;SDS011;17218;54.070;10.012;2024-02-23T14:34:30;3.03;;;0.80;;
30420;SDS011;17218;54.070;10.012;2024-02-23T14:36:58;0.50;;;0.50;;